Track Мизонов Сергей

Time Latitude Longitude Accuracy (66% radius in meters) Altitude (meters) Speed (km/hour) Bearing (degrees) Battery (%) GPS flag
09:43:24 56.387649 43.737167 24 92.400001525879 0 0 75 1 delete
09:43:13 56.387652 43.737170 15 92.099998474121 0 0 75 1 delete
09:43:00 56.387648 43.737169 9 91.300003051758 0 0 75 1 delete
09:42:50 56.387633 43.737137 15 90.300003051758 0 0 75 1 delete
09:42:39 56.387635 43.737139 19 90.400001525879 0 0 75 1 delete
09:42:33 56.387612 43.737207 19 89.699996948242 0.5 246 75 1 delete
09:42:27 56.387666 43.737221 15 89.699996948242 0 0 75 1 delete
09:42:16 56.387691 43.737223 8 89.699996948242 0.25 246 75 1 delete
09:42:05 56.387667 43.737220 5 89.5 0.25 246 75 1 delete
09:41:53 56.387671 43.737235 5 87.300003051758 0 0 75 1 delete
09:41:42 56.387673 43.737260 5 89 1.25 261.10000610352 75 1 delete
09:41:30 56.387671 43.737272 5 90.699996948242 0.5 217.10000610352 75 1 delete
09:41:17 56.387700 43.737269 5 89.5 2.0615527629852 147.39999389648 75 1 delete
09:41:16 56.387713 43.737249 5 89.099998474121 2.0615527629852 148 75 1 delete
09:41:12 56.387730 43.737083 5 88.800003051758 2.5495097637177 102.90000152588 75 1 delete
09:41:08 56.387760 43.736915 5 87.300003051758 2.75 114.80000305176 75 1 delete
09:41:06 56.387777 43.736835 5 86.599998474121 2 110.30000305176 75 1 delete
09:41:04 56.387796 43.736740 5 86.300003051758 3.75 108.40000152588 75 1 delete
09:41:00 56.387844 43.736554 5 85 3 106.19999694824 75 1 delete
09:40:57 56.387844 43.736376 5 84.199996948242 3.0413813591003 97 75 1 delete
09:40:54 56.387853 43.736214 5 85 3.288236618042 95.599998474121 75 1 delete
09:40:50 56.387863 43.736006 5 86.699996948242 2.7950849533081 101.19999694824 75 1 delete
09:40:46 56.387859 43.735819 5 88.699996948242 2.9261748790741 91.099998474121 75 1 delete
09:40:43 56.387870 43.735708 5 90.900001525879 2.5495097637177 120.69999694824 75 1 delete
09:40:41 56.387895 43.735626 5 91.699996948242 3 123.80000305176 75 1 delete
09:40:37 56.387960 43.735513 5 89.800003051758 2.3048861026764 110.30000305176 75 1 delete
09:40:33 56.387982 43.735354 5 88.599998474121 2.75 117.40000152588 75 1 delete
09:40:32 56.387993 43.735311 5 88.599998474121 2.5495097637177 139.19999694824 75 1 delete
09:40:29 56.388045 43.735217 5 88.699996948242 2.0615527629852 134.80000305176 75 1 delete
09:40:24 56.388054 43.735026 5 92.199996948242 1.75 110.30000305176 75 1 delete
09:40:21 56.388097 43.734919 5 91.400001525879 2.5 123.69999694824 75 1 delete
09:40:20 56.388113 43.734878 5 91.400001525879 2.7950849533081 123.5 75 1 delete
09:40:16 56.388169 43.734734 5 94.599998474121 3 124.40000152588 75 1 delete
09:40:12 56.388235 43.734592 5 93.800003051758 2 146 75 1 delete
09:40:10 56.388269 43.734547 5 94.099998474121 2.0615527629852 135.19999694824 75 1 delete
09:39:59 56.388300 43.734466 5 94.800003051758 0.90138781070709 151.30000305176 75 1 delete
09:39:46 56.388301 43.734464 6 94.699996948242 0 0 75 1 delete
09:39:35 56.388301 43.734465 5 94.599998474121 0 0 75 1 delete
09:39:24 56.388301 43.734466 5 94.5 0 0 75 1 delete
09:39:13 56.388300 43.734466 5 94.400001525879 0 0 75 1 delete
09:39:01 56.388300 43.734466 5 94.300003051758 0 0 75 1 delete
09:38:50 56.388300 43.734466 5 94.300003051758 0 0 75 1 delete
09:38:39 56.388300 43.734467 5 94.199996948242 0 0 75 1 delete
09:38:27 56.388300 43.734467 5 94.099998474121 0 0 75 1 delete
09:38:15 56.388297 43.734484 5 94.599998474121 0 0 75 1 delete
09:38:04 56.388307 43.734493 5 93 0 0 75 1 delete
09:37:52 56.388307 43.734493 5 93 0 0 75 1 delete
09:37:42 56.388307 43.734493 5 93 0 0 75 1 delete
09:37:31 56.388307 43.734492 5 92.900001525879 0 0 75 1 delete
09:37:20 56.388307 43.734492 5 92.800003051758 0 0 75 1 delete